createdAt,value
2023-02-20T00:02:22.297Z,1.07
2023-02-20T00:04:50.586Z,1.80
2023-02-20T00:07:19.027Z,0.30
2023-02-20T00:09:48.696Z,0.60
2023-02-20T00:12:17.077Z,1.03
2023-02-20T00:14:45.487Z,0.30
2023-02-20T00:17:13.944Z,0.37
2023-02-20T00:19:42.257Z,0.53
2023-02-20T00:22:10.560Z,1.23
2023-02-20T00:24:39.018Z,0.30
2023-02-20T00:27:08.734Z,0.50
2023-02-20T00:29:37.053Z,0.40
2023-02-20T00:32:05.778Z,0.30
2023-02-20T00:34:34.241Z,0.60
2023-02-20T00:37:02.519Z,0.77
2023-02-20T00:39:30.888Z,0.97
2023-02-20T00:41:59.371Z,0.33
2023-02-20T00:44:29.102Z,0.20
2023-02-20T00:46:57.525Z,0.87
2023-02-20T00:49:25.819Z,1.17
2023-02-20T00:51:54.086Z,1.10
2023-02-20T00:54:22.351Z,1.30
2023-02-20T00:56:50.670Z,1.57
2023-02-20T00:59:19.289Z,0.30
2023-02-20T01:01:49.124Z,1.37
2023-02-20T01:04:17.383Z,0.77
2023-02-20T01:06:45.726Z,0.40
2023-02-20T01:09:14.201Z,1.30
2023-02-20T01:11:43.366Z,0.60
2023-02-20T01:14:12.227Z,0.60
2023-02-20T01:16:45.883Z,0.60
2023-02-20T01:19:16.396Z,0.50
2023-02-20T01:21:44.924Z,0.30
2023-02-20T01:24:13.370Z,0.40
2023-02-20T01:26:42.969Z,0.70
2023-02-20T01:29:11.182Z,0.60
2023-02-20T01:31:39.753Z,0.50
2023-02-20T01:34:08.498Z,0.53
2023-02-20T01:36:38.222Z,0.43
2023-02-20T01:39:06.526Z,0.80
2023-02-20T01:41:34.815Z,0.60
2023-02-20T01:44:03.118Z,0.90
2023-02-20T01:46:51.694Z,0.30
2023-02-20T01:49:29.216Z,1.30
2023-02-20T01:52:04.463Z,1.17
2023-02-20T01:54:34.245Z,0.80
2023-02-20T01:57:04.628Z,0.73
2023-02-20T01:59:37.148Z,0.60
2023-02-20T02:02:06.953Z,0.90
2023-02-20T02:04:37.492Z,1.07
2023-02-20T02:07:07.666Z,0.50
2023-02-20T02:09:42.552Z,0.70
2023-02-20T02:12:11.488Z,0.97
2023-02-20T02:14:39.757Z,0.47
2023-02-20T02:17:33.186Z,0.70
2023-02-20T02:20:33.090Z,0.50
2023-02-20T02:23:53.134Z,0.40
2023-02-20T02:26:59.793Z,0.63
2023-02-20T02:29:53.066Z,0.70
2023-02-20T02:32:48.584Z,0.40
2023-02-20T02:35:45.391Z,0.30
2023-02-20T02:38:26.459Z,0.67
2023-02-20T02:41:08.260Z,0.30
2023-02-20T02:43:42.684Z,1.33
2023-02-20T02:46:16.634Z,0.50
2023-02-20T02:48:51.014Z,0.40
2023-02-20T02:51:25.678Z,0.20
2023-02-20T02:54:12.425Z,0.73
2023-02-20T02:56:43.036Z,0.30
2023-02-20T02:59:16.466Z,0.47
2023-02-20T03:01:51.692Z,0.70
2023-02-20T03:04:23.707Z,0.70
2023-02-20T03:06:56.651Z,0.60
2023-02-20T03:09:30.165Z,0.60
2023-02-20T03:12:01.583Z,0.60
2023-02-20T03:14:54.403Z,0.90
2023-02-20T03:17:29.772Z,0.60
2023-02-20T03:20:00.424Z,1.00
2023-02-20T03:22:32.270Z,1.40
2023-02-20T03:25:07.298Z,0.67
2023-02-20T03:27:41.344Z,1.80
2023-02-20T03:30:14.512Z,0.50
2023-02-20T03:33:02.474Z,0.60
2023-02-20T03:35:51.595Z,0.50
2023-02-20T03:38:40.660Z,0.30
2023-02-20T03:41:29.286Z,1.70
2023-02-20T03:43:59.429Z,0.50
2023-02-20T03:46:30.830Z,0.40
2023-02-20T03:49:05.585Z,0.30
2023-02-20T03:51:33.571Z,0.30
2023-02-20T03:54:02.592Z,1.47
2023-02-20T03:56:36.990Z,0.80
2023-02-20T03:59:13.761Z,1.07
2023-02-20T04:01:44.930Z,0.87
2023-02-20T04:04:19.197Z,2.40
2023-02-20T04:06:50.262Z,0.53
2023-02-20T04:09:22.522Z,0.70
2023-02-20T04:11:56.378Z,0.60
2023-02-20T04:14:27.838Z,0.87
2023-02-20T04:17:02.008Z,1.93
2023-02-20T04:19:31.168Z,0.20
2023-02-20T04:22:02.709Z,0.40
2023-02-20T04:24:34.639Z,0.93
2023-02-20T04:27:05.086Z,1.03
2023-02-20T04:29:33.877Z,1.23
2023-02-20T04:32:02.183Z,0.93
2023-02-20T04:34:30.754Z,0.30
2023-02-20T04:37:08.379Z,0.43
2023-02-20T04:39:36.781Z,0.90
2023-02-20T04:42:06.515Z,0.90
2023-02-20T04:44:35.411Z,1.50
2023-02-20T04:47:07.235Z,1.80
2023-02-20T04:49:36.280Z,1.07
2023-02-20T04:52:04.798Z,2.00
2023-02-20T04:54:33.137Z,2.07
2023-02-20T04:57:01.390Z,1.27
2023-02-20T04:59:31.047Z,0.53
2023-02-20T05:02:01.289Z,1.53
2023-02-20T05:04:29.923Z,1.70
2023-02-20T05:06:58.390Z,1.60
2023-02-20T05:09:27.076Z,1.50
2023-02-20T05:11:55.556Z,1.57
2023-02-20T05:14:23.848Z,0.40
2023-02-20T05:16:53.580Z,0.70
2023-02-20T05:19:21.903Z,0.57
2023-02-20T05:22:07.208Z,0.90
2023-02-20T05:24:35.531Z,1.70
2023-02-20T05:27:03.889Z,0.70
2023-02-20T05:29:32.219Z,0.50
2023-02-20T05:32:01.933Z,4.20
2023-02-20T05:34:30.121Z,2.53
2023-02-20T05:36:58.523Z,2.90
2023-02-20T05:39:26.824Z,2.63
2023-02-20T05:41:55.209Z,2.00
2023-02-20T05:44:23.473Z,1.37
2023-02-20T05:46:51.852Z,2.50
2023-02-20T05:49:21.772Z,2.00
2023-02-20T05:51:51.049Z,1.90
2023-02-20T05:54:19.515Z,1.13
2023-02-20T05:56:48.577Z,1.47
2023-02-20T05:59:20.772Z,0.50
2023-02-20T06:01:52.689Z,0.93
2023-02-20T06:04:22.619Z,1.70
2023-02-20T06:06:51.011Z,0.80
2023-02-20T06:09:19.583Z,1.57
2023-02-20T06:11:51.601Z,3.07
2023-02-20T06:14:21.982Z,2.03
2023-02-20T06:16:50.248Z,3.23
2023-02-20T06:19:24.356Z,3.40
2023-02-20T06:21:54.167Z,3.30
2023-02-20T06:24:23.216Z,4.33
2023-02-20T06:26:52.369Z,2.50
2023-02-20T06:29:21.311Z,1.33
2023-02-20T06:31:50.160Z,1.60
2023-02-20T06:34:19.204Z,1.40
2023-02-20T06:36:48.886Z,2.73
2023-02-20T06:39:21.089Z,3.13
2023-02-20T06:41:49.344Z,1.53
2023-02-20T06:44:17.685Z,4.30
2023-02-20T06:46:46.190Z,2.87
2023-02-20T06:49:14.658Z,2.57
2023-02-20T06:51:43.066Z,1.90
2023-02-20T06:54:14.122Z,0.87
2023-02-20T06:56:45.191Z,2.00
2023-02-20T06:59:15.198Z,0.90
2023-02-20T07:01:44.717Z,0.90
2023-02-20T07:04:18.781Z,0.60
2023-02-20T07:06:47.350Z,1.03
2023-02-20T07:09:17.675Z,1.37
2023-02-20T07:11:46.026Z,2.63
2023-02-20T07:14:15.171Z,2.53
2023-02-20T07:16:43.420Z,2.30
2023-02-20T07:19:11.777Z,2.53
2023-02-20T07:21:40.097Z,3.07
2023-02-20T07:24:09.253Z,2.00
2023-02-20T07:26:39.715Z,1.50
2023-02-20T07:29:08.744Z,1.67
2023-02-20T07:31:37.316Z,2.20
2023-02-20T07:34:05.791Z,2.83
2023-02-20T07:36:34.067Z,2.63
2023-02-20T07:39:02.979Z,1.97
2023-02-20T07:41:33.159Z,3.73
2023-02-20T07:44:02.827Z,2.57
2023-02-20T07:46:34.911Z,2.50
2023-02-20T07:49:03.967Z,2.30
2023-02-20T07:51:32.625Z,2.00
2023-02-20T07:54:00.962Z,1.77
2023-02-20T07:56:29.302Z,0.77
2023-02-20T07:58:59.784Z,2.23
2023-02-20T08:01:30.825Z,3.60
2023-02-20T08:03:59.091Z,2.70
2023-02-20T08:06:29.092Z,1.40
2023-02-20T08:08:57.493Z,1.90
2023-02-20T08:11:25.926Z,1.43
2023-02-20T08:13:57.040Z,1.80
2023-02-20T08:16:27.146Z,1.10
2023-02-20T08:18:57.036Z,0.93
2023-02-20T08:21:25.327Z,0.47
2023-02-20T08:23:55.131Z,0.30
2023-02-20T08:26:24.246Z,0.80
2023-02-20T08:28:53.672Z,1.13
2023-02-20T08:31:31.628Z,0.50
2023-02-20T08:34:02.436Z,0.40
2023-02-20T08:36:31.550Z,0.30
2023-02-20T08:39:01.433Z,0.40
2023-02-20T08:41:29.717Z,0.20
2023-02-20T08:43:58.083Z,0.30
2023-02-20T08:46:26.498Z,0.33
2023-02-20T08:48:54.920Z,0.30
2023-02-20T08:51:26.594Z,0.30
2023-02-20T08:53:54.997Z,0.30
2023-02-20T08:56:23.758Z,0.77
2023-02-20T08:58:52.090Z,0.20
2023-02-20T09:01:20.462Z,0.30
2023-02-20T09:03:49.390Z,0.20
2023-02-20T09:06:17.911Z,0.27
2023-02-20T09:08:48.600Z,0.50
2023-02-20T09:11:17.214Z,0.20
2023-02-20T09:13:46.028Z,0.30
2023-02-20T09:16:15.397Z,0.30
2023-02-20T09:18:44.696Z,0.40
2023-02-20T09:21:13.983Z,0.30
2023-02-20T09:23:42.282Z,0.30
2023-02-20T09:26:12.282Z,0.43
2023-02-20T09:28:40.956Z,0.20
2023-02-20T09:31:09.408Z,0.20
2023-02-20T09:33:37.689Z,0.20
2023-02-20T09:36:06.787Z,0.30
2023-02-20T09:38:35.018Z,0.30
2023-02-20T09:41:03.363Z,0.30
2023-02-20T09:43:42.074Z,0.50
2023-02-20T09:46:16.104Z,0.20
2023-02-20T09:49:08.452Z,0.50
2023-02-20T09:51:39.785Z,0.30
2023-02-20T09:54:13.010Z,0.30
2023-02-20T09:56:46.291Z,0.23
2023-02-20T09:59:19.922Z,0.40
2023-02-20T10:01:54.907Z,0.30
2023-02-20T10:04:27.811Z,0.30
2023-02-20T10:07:03.755Z,1.07
2023-02-20T10:09:32.082Z,2.30
2023-02-20T10:12:12.893Z,0.63
2023-02-20T10:15:04.221Z,0.67
2023-02-20T10:17:42.372Z,0.50
2023-02-20T10:20:15.858Z,0.30
2023-02-20T10:22:54.868Z,0.30
2023-02-20T10:25:29.839Z,0.27
2023-02-20T10:28:04.743Z,0.30
2023-02-20T10:30:42.320Z,0.30
2023-02-20T10:33:57.324Z,0.20
2023-02-20T10:36:29.361Z,0.30
2023-02-20T10:39:03.214Z,0.20
2023-02-20T10:41:36.290Z,0.20
2023-02-20T10:44:15.291Z,0.20
2023-02-20T10:46:52.162Z,0.20
2023-02-20T10:49:27.300Z,0.30
2023-02-20T10:52:01.115Z,0.40
2023-02-20T10:54:35.631Z,0.37
2023-02-20T10:57:10.837Z,0.20
2023-02-20T10:59:46.199Z,0.30
2023-02-20T11:02:20.130Z,0.37
2023-02-20T11:04:54.609Z,0.40
2023-02-20T11:07:23.918Z,0.67
2023-02-20T11:09:52.294Z,0.20
2023-02-20T11:12:30.920Z,0.93
2023-02-20T11:15:06.305Z,0.30
2023-02-20T11:17:39.811Z,0.30
2023-02-20T11:20:46.221Z,0.30
2023-02-20T11:23:41.392Z,0.27
2023-02-20T11:26:33.936Z,0.33
2023-02-20T11:29:08.151Z,0.30
2023-02-20T11:31:36.975Z,0.30
2023-02-20T11:34:07.842Z,0.20
2023-02-20T11:36:40.782Z,0.30
2023-02-20T11:39:21.303Z,0.30
2023-02-20T11:41:52.043Z,0.50
2023-02-20T11:44:27.717Z,0.20
2023-02-20T11:47:20.191Z,0.30
2023-02-20T11:49:48.769Z,0.20
2023-02-20T11:52:19.142Z,0.50
2023-02-20T11:54:49.293Z,0.40
2023-02-20T11:57:26.836Z,0.30
2023-02-20T12:00:11.309Z,0.30
2023-02-20T12:02:50.272Z,0.20
2023-02-20T12:05:19.988Z,0.20
2023-02-20T12:07:57.772Z,0.40
2023-02-20T12:10:36.327Z,0.20
2023-02-20T12:13:05.635Z,0.20
2023-02-20T12:15:33.899Z,0.20
2023-02-20T12:18:37.084Z,0.30
2023-02-20T12:21:29.653Z,0.30
2023-02-20T12:24:11.030Z,0.20
2023-02-20T12:26:54.312Z,0.60
2023-02-20T12:29:32.251Z,0.30
2023-02-20T12:32:13.365Z,0.20
2023-02-20T12:34:56.368Z,0.30
2023-02-20T12:37:35.301Z,0.27
2023-02-20T12:40:25.637Z,0.20
2023-02-20T12:43:03.296Z,0.20
2023-02-20T12:45:39.551Z,0.20
2023-02-20T12:48:21.215Z,0.53
2023-02-20T12:50:57.322Z,0.20
2023-02-20T12:53:43.121Z,0.37
2023-02-20T12:56:25.703Z,0.20
2023-02-20T12:59:04.665Z,0.20
2023-02-20T13:01:39.924Z,0.30
2023-02-20T13:04:22.041Z,0.30
2023-02-20T13:06:58.087Z,0.20
2023-02-20T13:09:31.177Z,0.30
2023-02-20T13:12:04.468Z,0.50
2023-02-20T13:14:46.781Z,0.30
2023-02-20T13:17:30.613Z,0.30
2023-02-20T13:20:08.032Z,0.50
2023-02-20T13:22:36.397Z,0.40
2023-02-20T13:25:36.177Z,0.20
2023-02-20T13:28:22.398Z,0.20
2023-02-20T13:31:09.273Z,0.40
2023-02-20T13:33:38.228Z,0.20
2023-02-20T13:36:07.366Z,0.30
2023-02-20T13:38:35.590Z,0.20
2023-02-20T13:41:09.360Z,0.30
2023-02-20T13:43:38.375Z,0.20
2023-02-20T13:46:25.783Z,0.30
2023-02-20T13:48:56.370Z,0.30
2023-02-20T13:51:35.964Z,0.30
2023-02-20T13:54:26.955Z,0.30
2023-02-20T13:56:59.878Z,0.20
2023-02-20T13:59:29.810Z,0.40
2023-02-20T14:02:03.961Z,0.33
2023-02-20T14:04:32.772Z,0.20
2023-02-20T14:07:01.124Z,0.20
2023-02-20T14:09:33.638Z,0.30
2023-02-20T14:12:08.721Z,0.20
2023-02-20T14:14:40.587Z,0.27
2023-02-20T14:17:16.155Z,0.40
2023-02-20T14:19:46.669Z,0.20
2023-02-20T14:22:30.344Z,0.20
2023-02-20T14:25:27.433Z,0.40
2023-02-20T14:28:07.506Z,0.30
2023-02-20T14:30:35.895Z,0.20
2023-02-20T14:33:20.586Z,0.20
2023-02-20T14:36:00.249Z,0.30
2023-02-20T14:38:43.419Z,0.60
2023-02-20T14:41:19.713Z,0.20
2023-02-20T14:43:56.675Z,0.50
2023-02-20T14:46:27.424Z,0.20
2023-02-20T14:49:10.162Z,0.30
2023-02-20T14:51:38.875Z,0.20
2023-02-20T14:54:19.220Z,0.40
2023-02-20T14:56:47.983Z,0.60
2023-02-20T14:59:28.598Z,0.30
2023-02-20T15:02:00.179Z,0.30
2023-02-20T15:04:30.516Z,0.30
2023-02-20T15:07:05.304Z,0.37
2023-02-20T15:09:38.725Z,0.20
2023-02-20T15:12:09.696Z,0.30
2023-02-20T15:14:44.569Z,0.37
2023-02-20T15:17:24.347Z,0.30
2023-02-20T15:19:54.491Z,0.47
2023-02-20T15:22:25.674Z,0.57
2023-02-20T15:24:54.348Z,1.03
2023-02-20T15:27:27.448Z,0.60
2023-02-20T15:30:15.190Z,0.20
2023-02-20T15:32:44.924Z,0.40
2023-02-20T15:35:18.805Z,0.40
2023-02-20T15:37:49.911Z,0.23
2023-02-20T15:40:23.591Z,1.60
2023-02-20T15:42:57.056Z,0.40
2023-02-20T15:45:26.888Z,0.40
2023-02-20T15:47:55.597Z,1.77
2023-02-20T15:50:26.511Z,1.60
2023-02-20T15:52:56.179Z,0.60
2023-02-20T15:55:25.135Z,1.57
2023-02-20T15:57:57.120Z,1.37
2023-02-20T16:00:27.614Z,0.90
2023-02-20T16:02:56.161Z,1.47
2023-02-20T16:05:26.251Z,2.83
2023-02-20T16:07:54.885Z,1.80
2023-02-20T16:10:24.873Z,1.30
2023-02-20T16:12:55.195Z,1.07
2023-02-20T16:15:25.457Z,0.87
2023-02-20T16:17:54.035Z,1.17
2023-02-20T16:20:25.303Z,1.07
2023-02-20T16:22:55.016Z,1.03
2023-02-20T16:25:24.898Z,1.27
2023-02-20T16:27:54.478Z,0.90
2023-02-20T16:30:34.560Z,1.10
2023-02-20T16:33:04.499Z,0.80
2023-02-20T16:35:32.853Z,1.03
2023-02-20T16:38:02.514Z,0.83
2023-02-20T16:40:30.878Z,2.30
2023-02-20T16:42:59.162Z,0.60
2023-02-20T16:45:27.721Z,0.53
2023-02-20T16:47:57.728Z,0.80
2023-02-20T16:50:30.032Z,0.40
2023-02-20T16:53:01.565Z,1.50
2023-02-20T16:55:32.923Z,0.93
2023-02-20T16:58:01.533Z,1.60
2023-02-20T17:00:32.132Z,0.90
2023-02-20T17:03:00.494Z,1.60
2023-02-20T17:05:31.036Z,1.57
2023-02-20T17:08:01.351Z,1.30
2023-02-20T17:10:32.771Z,2.13
2023-02-20T17:13:01.140Z,1.90
2023-02-20T17:15:29.555Z,3.33
2023-02-20T17:17:57.850Z,3.13
2023-02-20T17:20:28.098Z,3.00
2023-02-20T17:23:04.657Z,3.63
2023-02-20T17:25:36.126Z,1.53
2023-02-20T17:28:04.989Z,3.57
2023-02-20T17:30:33.223Z,2.67
2023-02-20T17:33:01.490Z,1.67
2023-02-20T17:35:29.775Z,0.90
2023-02-20T17:37:58.007Z,0.60
2023-02-20T17:40:26.374Z,1.20
2023-02-20T17:42:56.119Z,1.97
2023-02-20T17:45:24.419Z,1.67
2023-02-20T17:47:52.677Z,1.90
2023-02-20T17:50:21.127Z,4.10
2023-02-20T17:52:50.408Z,3.60
2023-02-20T17:55:20.607Z,1.23
2023-02-20T17:57:49.017Z,2.93
2023-02-20T18:00:20.918Z,1.63
2023-02-20T18:02:49.243Z,0.70
2023-02-20T18:05:17.897Z,1.00
2023-02-20T18:07:46.473Z,2.73
2023-02-20T18:10:14.887Z,2.63
2023-02-20T18:12:43.564Z,1.17
2023-02-20T18:15:12.036Z,1.07
2023-02-20T18:17:41.673Z,1.00
2023-02-20T18:20:10.681Z,1.77
2023-02-20T18:22:39.038Z,1.13
2023-02-20T18:25:10.169Z,1.70
2023-02-20T18:27:38.495Z,1.40
2023-02-20T18:30:07.731Z,3.10
2023-02-20T18:32:36.192Z,3.50
2023-02-20T18:35:06.670Z,1.77
2023-02-20T18:37:35.227Z,1.73
2023-02-20T18:40:03.711Z,5.03
2023-02-20T18:42:32.064Z,1.47
2023-02-20T18:45:00.441Z,1.80
2023-02-20T18:47:29.077Z,1.93
2023-02-20T18:49:57.393Z,5.43
2023-02-20T18:52:27.182Z,3.20
2023-02-20T18:54:55.379Z,2.43
2023-02-20T18:57:23.917Z,2.30
2023-02-20T18:59:52.291Z,1.03
2023-02-20T19:02:20.735Z,1.50
2023-02-20T19:04:50.534Z,1.37
2023-02-20T19:07:18.769Z,0.70
2023-02-20T19:09:54.329Z,0.90
2023-02-20T19:12:22.762Z,1.43
2023-02-20T19:14:51.053Z,1.00
2023-02-20T19:17:19.455Z,0.50
2023-02-20T19:19:48.649Z,2.47
2023-02-20T19:22:16.971Z,2.50
2023-02-20T19:24:45.147Z,1.20
2023-02-20T19:27:14.861Z,0.90
2023-02-20T19:29:43.136Z,1.13
2023-02-20T19:32:11.574Z,1.57
2023-02-20T19:34:40.036Z,1.50
2023-02-20T19:37:08.353Z,1.13
2023-02-20T19:39:36.641Z,0.87
2023-02-20T19:42:07.143Z,2.37
2023-02-20T19:44:39.043Z,1.20
2023-02-20T19:47:07.617Z,2.93
2023-02-20T19:49:36.023Z,2.03
2023-02-20T19:52:04.714Z,2.20
2023-02-20T19:54:33.124Z,0.60
2023-02-20T19:57:04.543Z,1.53
2023-02-20T19:59:32.900Z,1.30
2023-02-20T20:02:03.070Z,0.80
2023-02-20T20:04:32.743Z,1.30
2023-02-20T20:07:02.653Z,0.70
2023-02-20T20:09:36.507Z,1.93
2023-02-20T20:12:27.063Z,0.53
2023-02-20T20:14:55.891Z,1.60
2023-02-20T20:17:25.738Z,2.20
2023-02-20T20:19:58.908Z,0.70
2023-02-20T20:22:27.908Z,1.93
2023-02-20T20:24:56.167Z,0.67
2023-02-20T20:27:24.498Z,0.70
2023-02-20T20:29:53.179Z,0.47
2023-02-20T20:32:22.959Z,0.20
2023-02-20T20:34:55.656Z,0.67
2023-02-20T20:37:25.542Z,0.30
2023-02-20T20:39:54.668Z,0.30
2023-02-20T20:42:25.467Z,0.20
2023-02-20T20:44:54.792Z,0.77
2023-02-20T20:47:23.946Z,0.37
2023-02-20T20:49:53.717Z,0.60
2023-02-20T20:52:24.761Z,0.30
2023-02-20T20:54:54.604Z,0.43
2023-02-20T20:57:24.963Z,0.30
2023-02-20T20:59:55.926Z,1.13
2023-02-20T21:02:24.708Z,0.50
2023-02-20T21:05:08.869Z,1.07
2023-02-20T21:07:38.056Z,0.87
2023-02-20T21:10:07.305Z,1.57
2023-02-20T21:12:35.716Z,0.60
2023-02-20T21:15:04.455Z,0.20
2023-02-20T21:17:33.126Z,0.67
2023-02-20T21:20:04.883Z,0.97
2023-02-20T21:22:33.223Z,0.60
2023-02-20T21:25:01.567Z,0.20
2023-02-20T21:27:29.830Z,0.30
2023-02-20T21:29:58.119Z,0.30
2023-02-20T21:32:26.858Z,0.30
2023-02-20T21:34:55.369Z,0.70
2023-02-20T21:37:25.218Z,0.30
2023-02-20T21:39:54.420Z,0.20
2023-02-20T21:42:39.975Z,0.20
2023-02-20T21:45:08.650Z,0.30
2023-02-20T21:47:37.175Z,0.20
2023-02-20T21:50:07.911Z,0.20
2023-02-20T21:52:37.829Z,0.30
2023-02-20T21:55:08.420Z,0.20
2023-02-20T21:57:36.696Z,0.50
2023-02-20T22:00:05.119Z,0.20
2023-02-20T22:02:32.431Z,0.77
2023-02-20T22:04:59.490Z,0.30
2023-02-20T22:07:45.067Z,0.37
2023-02-20T22:10:50.550Z,0.43
2023-02-20T22:13:36.017Z,0.40
2023-02-20T22:16:22.140Z,0.30
2023-02-20T22:19:07.673Z,0.57
2023-02-20T22:21:53.214Z,0.97
2023-02-20T22:24:39.369Z,0.50
2023-02-20T22:27:28.124Z,0.73
2023-02-20T22:30:14.335Z,0.60
2023-02-20T22:32:59.863Z,0.40
2023-02-20T22:35:45.216Z,0.20
2023-02-20T22:38:30.700Z,0.30
2023-02-20T22:41:16.973Z,0.20
2023-02-20T22:44:04.282Z,0.20
2023-02-20T22:46:49.823Z,0.27
2023-02-20T22:49:35.426Z,0.30
2023-02-20T22:52:20.887Z,0.30
2023-02-20T22:55:07.868Z,0.60
2023-02-20T22:57:53.568Z,0.70
2023-02-20T23:00:40.622Z,0.30
2023-02-20T23:03:26.298Z,0.30
2023-02-20T23:06:17.878Z,0.30
2023-02-20T23:09:04.746Z,0.33
2023-02-20T23:11:52.200Z,0.50
2023-02-20T23:14:38.739Z,0.30
2023-02-20T23:17:35.652Z,1.50
2023-02-20T23:20:24.992Z,0.30
2023-02-20T23:23:11.004Z,0.80
2023-02-20T23:25:56.458Z,0.90
2023-02-20T23:28:42.074Z,0.20
2023-02-20T23:31:27.669Z,0.83
2023-02-20T23:34:14.746Z,1.03
2023-02-20T23:37:04.950Z,0.20
2023-02-20T23:39:50.412Z,0.20
2023-02-20T23:42:36.905Z,1.60
2023-02-20T23:45:23.315Z,0.50
2023-02-20T23:48:08.699Z,0.40
2023-02-20T23:50:55.649Z,0.60
2023-02-20T23:53:41.282Z,0.40
2023-02-20T23:56:27.277Z,0.30
2023-02-20T23:59:12.852Z,0.30
